Verona, MS (38879)

12:07 PM CDT on July 29, 2016 (GMT -0500)
Lee Acres | | Change Station

Elev 340 ft 34.24 °N, 88.72 °W | Updated 46 seconds ago

Clear
Clear
81.8 °F
Feels Like 88 °F
N
3.0
Wind Variable Wind from SSW
Gusts 5.0 mph

Today
High -- | Low -- °F
--% Chance of Precip.
Yesterday
High -- | Low -- °F
Precip. -- in
Pressure 30.01 in
Visibility 10.0 miles
Clouds Clear
Heat Index 88 °F
Dew Point 74 °F
Humidity 78%
Rainfall 0.00 in
Snow Depth Not available.
6:04 AM 7:58 PM
Waning Crescent, 20% visible
METAR KTUP 291653Z 18004KT 10SM CLR 27/21 A3002 RMK AO2 SLP160 T02720211
Pressure 30.01 in
Visibility 10.0 miles
Clouds Clear
Heat Index 88 °F
Dew Point 74 °F
Humidity 78%
Rainfall 0.00 in
Snow Depth Not available.
6:04 AM 7:58 PM
Waning Crescent, 20% visible
METAR KTUP 291653Z 18004KT 10SM CLR 27/21 A3002 RMK AO2 SLP160 T02720211

10-Day Weather Forecast

Almanac

Astronomy

Jul. 29, 2016 Rise Set
Actual Time
Civil Twilight
Nautical Twilight
Astronomical Twilight
Moon
Length of Visible Light
Length of Day
Tomorrow will be .
, % of the Moon is Illuminated

Today's Extremes

State Highs State Lows

Community

WunderPhotos

Upload Photos

1,928,381 photos uploaded!

WunderBlog® & News

Nearby

Air Quality

  Air Quality AQ Index Pollutant
Not available.

Snow Depth

Station Depth Elevation

Earthquake Activity

City Distance Mag. Time & Date
Minimum magnitude displayed is 2.5.

Coastal Water Temperatures

Place Temperature

Stations

Nearby Weather Stations

Station Location Temp. Windchill Dew Point Humidity Wind Precip. Elev Updated Type
                   

Watches & Warnings

There are currently no watches in effect.